Latest Coastal Weather Observations for Neptune Island

IDT60701

Issued at 8:32 pm EST Tuesday 25 April 2017 (issued every 10 minutes, with the page automatically refreshed every 10 minutes)

About coastal observations | Map of coastal stations | Coastal observations for TAS | Marine services | Other Formats
Station Details ID: 018115 Name: NEPTUNE ISLAND Lat: -35.34 Lon: 136.12 Height: 32.0 m
Data from the previous 72 hours. | See also: Recent months at Neptune Island
Date/Time
EST
Temp
°C
Wind Pressure Rain since
9am
mm
Weather Cloud Vis
km
Sea
Height
m
Swell
Dir  Spd
kts
Gust
kts
hPa Trend Height
m
Period
s
Dir
25/08:30pm 15.2 SW 29 35 1013.1 - 1.6 - - - - - - -
25/08:00pm 15.1 WSW 31 41 1012.7 - 1.2 - - - - - - -
25/07:49pm 17.2 WSW 27 39 1012.6 - 0.4 - - - - - - -
25/07:30pm 16.9 W 29 35 1012.5 - 0.4 - - - - - - -
25/07:00pm 16.6 WSW 28 32 1012.3 - 0.4 - - - - - - -
25/06:30pm 16.3 W 25 33 1012.4 - 0.4 Rain - - - - - -
25/06:00pm 16.7 WSW 27 31 1012.2 - 0.2 - - - - - - -
25/05:30pm 17.0 WSW 29 32 1012.2 - 0.2 - - - - - - -
25/05:00pm 17.1 WSW 26 31 1012.0 - 0.2 - - - - - - -
25/04:30pm 17.1 WSW 25 30 1012.1 - 0.2 - - - - - - -
25/04:00pm 17.4 WSW 27 31 1012.2 - 0.2 - - - - - - -
25/03:30pm 17.4 WSW 29 35 1012.1 - 0.2 - - - - - - -
25/03:00pm 17.6 WSW 25 30 1012.3 - 0.2 - - - - - - -
25/02:30pm 17.8 W 24 29 1012.3 - 0.2 - - - - - - -
25/02:00pm 17.3 WSW 24 27 1012.5 - 0.2 - - - - - - -
25/01:30pm 17.1 WSW 25 30 1012.9 - 0.2 - - - - - - -
25/01:00pm 16.7 WSW 24 27 1013.2 - 0.2 - - - - - - -
25/12:30pm 15.7 WSW 19 26 1013.4 - 0.2 Recent precip. - - - - - -
25/12:00pm 15.8 WSW 20 23 1013.9 - 0.0 - - - - - - -
25/11:30am 15.3 WSW 23 28 1014.0 - 0.0 - - - - - - -
25/11:02am 16.9 W 19 28 1013.8 - 0.0 - - - - - - -
25/11:00am 17.4 W 17 27 1013.8 - 0.0 - - - - - - -
25/10:59am 17.9 W 16 26 1013.9 - 0.0 - - - - - - -
25/10:30am 18.4 W 15 18 1014.2 - 0.0 - - - - - - -
25/10:00am 17.9 W 13 16 1014.1 - 0.0 - - - - - - -
25/09:30am 17.2 W 12 14 1014.2 - 0.0 - - - - - - -
25/09:00am 17.0 WSW 15 18 1014.3 - 0.0 - - - - - - -
25/08:30am 16.9 WSW 17 20 1014.1 - 0.0 - - - - - - -
25/08:00am 16.9 WSW 18 21 1013.8 - 0.0 - - - - - - -
25/07:30am 16.8 WSW 18 21 1013.5 - 0.0 - - - - - - -
25/07:00am 16.9 WSW 18 21 1013.3 - 0.0 - - - - - - -
25/06:30am 16.7 WSW 20 24 1013.1 - 0.0 - - - - - - -
25/06:00am 16.6 WSW 21 24 1013.0 - 0.0 - - - - - - -
25/05:30am 16.7 WSW 18 22 1012.8 - 0.0 - - - - - - -
25/05:00am 16.7 WSW 20 23 1012.8 - 0.0 - - - - - - -
25/04:30am 16.8 WSW 19 22 1012.4 - 0.0 - - - - - - -
25/04:00am 16.9 WSW 22 25 1012.4 - 0.0 - - - - - - -
25/03:30am 16.8 WSW 22 26 1012.3 - 0.0 - - - - - - -
25/03:00am 17.1 WSW 23 27 1012.3 - 0.0 - - - - - - -
25/02:30am 17.3 WSW 23 26 1012.3 - 0.0 - - - - - - -
25/02:00am 17.3 WSW 23 27 1012.4 - 0.0 - - - - - - -
25/01:30am 17.3 WSW 22 25 1012.5 - 0.0 - - - - - - -
25/01:00am 17.4 WSW 23 28 1012.6 - 0.0 - - - - - - -
25/12:30am 17.4 WSW 23 26 1012.7 - 0.0 - - - - - - -
25/12:00am 17.2 WSW 23 27 1012.9 - 0.0 - - - - - - -
 
Date/Time
EST
Temp
°C
Wind Pressure Rain since
9am
mm
Weather Cloud Vis
km
Sea
Height
m
Swell
Dir  Spd
kts
Gust
kts
hPa Trend Height
m
Period
s
Dir
24/11:30pm 17.1 WSW 21 24 1013.4 - 0.0 - - - - - - -
24/11:00pm 17.1 WSW 23 26 1013.7 - 0.0 - - - - - - -
24/10:30pm 17.1 WSW 20 25 1013.7 - 0.0 - - - - - - -
24/10:00pm 16.9 WSW 19 23 1013.9 - 0.0 - - - - - - -
24/09:30pm 17.0 WSW 18 22 1013.8 - 0.0 - - - - - - -
24/09:00pm 16.7 WSW 18 21 1013.8 - 0.0 - - - - - - -
24/08:30pm 16.7 WSW 19 23 1013.8 - 0.0 - - - - - - -
24/08:00pm 16.8 WSW 20 23 1013.7 - 0.0 - - - - - - -
24/07:30pm 16.8 WSW 22 25 1013.5 - 0.0 - - - - - - -
24/07:00pm 17.1 WSW 21 24 1013.2 - 0.0 - - - - - - -
24/06:30pm 17.7 WSW 21 23 1013.0 - 0.0 - - - - - - -
24/06:00pm 17.9 SW 19 22 1012.7 - 0.0 - - - - - - -
24/05:30pm 18.1 SW 17 20 1012.7 - 0.0 - - - - - - -
24/05:00pm 18.3 WSW 17 19 1012.7 - 0.0 - - - - - - -
24/04:30pm 18.6 SW 17 19 1012.6 - 0.0 - - - - - - -
24/04:00pm 18.8 SW 16 18 1012.4 - 0.0 - - - - - - -
24/03:30pm 18.7 SW 16 19 1012.6 - 0.0 - - - - - - -
24/03:00pm 18.9 SW 15 16 1012.8 - 0.0 - - - - - - -
24/02:30pm 18.9 WSW 16 18 1012.9 - 0.0 - - - - - - -
24/02:00pm 19.1 WSW 16 19 1013.0 - 0.0 - - - - - - -
24/01:30pm 19.6 WNW 16 19 1013.3 - 0.0 - - - - - - -
24/01:00pm 20.2 NW 13 16 1013.8 - 0.0 - - - - - - -
24/12:30pm 19.7 NW 15 17 1014.4 - 0.0 - - - - - - -
24/12:00pm 20.0 NW 13 16 1014.6 - 0.0 - - - - - - -
24/11:30am 19.1 NNW 11 13 1015.0 - 0.0 - - - - - - -
24/11:00am 19.0 N 8 10 1015.3 - 0.0 - - - - - - -
24/10:30am 18.7 N 10 12 1015.7 - 0.0 - - - - - - -
24/10:00am 18.6 NNE 9 9 1015.9 - 0.0 - - - - - - -
24/09:30am 18.4 NNE 9 11 1016.0 - 0.0 - - - - - - -
24/09:00am 18.4 NNE 8 11 1016.1 - 0.0 - - - - - - -
24/08:30am 18.3 NE 6 8 1016.0 - 0.0 - - - - - - -
24/08:00am 18.1 NE 9 11 1016.1 - 0.0 - - - - - - -
24/07:30am 18.1 ENE 10 11 1016.4 - 0.0 - - - - - - -
24/07:00am 18.3 ENE 11 13 1016.4 - 0.0 - - - - - - -
24/06:30am 18.3 ENE 10 12 1016.3 - 0.0 - - - - - - -
24/06:00am 18.3 ENE 9 10 1016.5 - 0.0 - - - - - - -
24/05:30am 18.3 E 9 11 1016.4 - 0.0 - - - - - - -
24/05:00am 18.3 E 7 8 1016.6 - 0.0 - - - - - - -
24/04:30am 18.4 E 7 8 1016.8 - 0.0 - - - - - - -
24/04:00am 18.3 E 8 9 1016.8 - 0.0 - - - - - - -
24/03:30am 18.4 E 9 10 1017.5 - 0.0 - - - - - - -
24/03:00am 18.4 E 8 10 1017.6 - 0.0 - - - - - - -
24/02:30am 18.3 E 8 10 1018.0 - 0.0 - - - - - - -
24/02:00am 18.2 E 7 9 1018.3 - 0.0 - - - - - - -
24/01:30am 18.3 E 8 10 1018.7 - 0.0 - - - - - - -
24/01:00am 18.3 ESE 10 11 1018.8 - 0.0 - - - - - - -
24/12:30am 18.3 E 9 11 1019.2 - 0.0 - - - - - - -
24/12:00am 18.4 ESE 7 9 1019.7 - 0.0 - - - - - - -
 
Date/Time
EST
Temp
°C
Wind Pressure Rain since
9am
mm
Weather Cloud Vis
km
Sea
Height
m
Swell
Dir  Spd
kts
Gust
kts
hPa Trend Height
m
Period
s
Dir
23/11:30pm 18.5 E 9 11 1019.9 - 0.0 - - - - - - -
23/11:00pm 18.5 E 11 12 1020.1 - 0.0 - - - - - - -
23/10:30pm 18.7 E 10 12 1020.2 - 0.0 - - - - - - -
23/10:00pm 18.6 ESE 8 10 1020.3 - 0.0 - - - - - - -
23/09:30pm 18.7 SE 9 11 1020.2 - 0.0 - - - - - - -
23/09:00pm 18.8 ESE 9 11 1019.9 - 0.0 - - - - - - -
23/08:30pm 18.6 ESE 9 10 1019.9 - 0.0 - - - - - - -
23/08:00pm 18.5 ESE 8 10 1019.9 - 0.0 - - - - - - -
23/07:30pm 18.5 ESE 9 11 1019.9 - 0.0 - - - - - - -
23/07:00pm 18.5 ESE 8 9 1019.9 - 0.0 - - - - - - -
23/06:30pm 18.6 SE 8 10 1019.7 - 0.0 - - - - - - -
23/06:00pm 18.8 SE 8 9 1019.7 - 0.0 - - - - - - -
23/05:30pm 19.2 SE 8 9 1019.6 - 0.0 - - - - - - -
23/05:00pm 20.0 E 9 11 1019.7 - 0.0 - - - - - - -
23/04:30pm 20.1 E 11 13 1019.7 - 0.0 - - - - - - -
23/04:00pm 20.1 E 11 13 1019.5 - 0.0 - - - - - - -
23/03:30pm 20.6 E 10 12 1019.8 - 0.0 - - - - - - -
23/03:00pm 20.3 E 10 13 1020.0 - 0.0 - - - - - - -
23/02:30pm 20.5 E 11 13 1020.1 - 0.0 - - - - - - -
23/02:00pm 20.0 E 11 13 1020.2 - 0.0 - - - - - - -
23/01:30pm 20.3 E 13 15 1020.6 - 0.0 - - - - - - -
23/01:00pm 20.6 E 14 16 1020.8 - 0.0 - - - - - - -
23/12:30pm 20.6 E 13 16 1021.4 - 0.0 - - - - - - -
23/12:00pm 20.6 E 13 15 1021.7 - 0.0 - - - - - - -
23/11:30am 20.3 E 14 17 1022.0 - 0.0 - - - - - - -
23/11:00am 19.8 E 15 17 1022.1 - 0.0 - - - - - - -
23/10:30am 19.3 E 15 17 1022.3 - 0.0 - - - - - - -
23/10:00am 18.8 E 13 16 1022.5 - 0.0 - - - - - - -
23/09:30am 18.7 E 11 14 1022.6 - 0.0 - - - - - - -
23/09:00am 17.9 E 13 16 1022.5 - 0.0 - - - - - - -
23/08:30am 17.8 ESE 12 14 1022.2 - 0.0 - - - - - - -
23/08:00am 17.4 ESE 12 15 1021.9 - 0.0 - - - - - - -
23/07:30am 17.3 ESE 12 15 1021.9 - 0.0 - - - - - - -
23/07:00am 17.2 ESE 13 14 1021.7 - 0.0 - - - - - - -
23/06:30am 17.3 ESE 12 14 1021.5 - 0.0 - - - - - - -
23/06:00am 17.2 E 13 15 1021.4 - 0.0 - - - - - - -
23/05:30am 17.2 E 11 14 1021.3 - 0.0 - - - - - - -
23/05:00am 17.3 E 12 15 1021.3 - 0.0 - - - - - - -
23/04:30am 17.3 E 13 16 1021.2 - 0.0 - - - - - - -
23/04:00am 17.3 E 12 15 1021.2 - 0.0 - - - - - - -
23/03:30am 17.3 E 14 17 1021.2 - 0.0 - - - - - - -
23/03:00am 17.2 E 16 19 1021.2 - 0.0 - - - - - - -
23/02:30am 17.2 E 18 21 1021.2 - 0.0 - - - - - - -
23/02:00am 17.3 E 15 17 1021.6 - 0.0 - - - - - - -
23/01:30am 17.3 E 15 18 1022.0 - 0.0 - - - - - - -
23/01:00am 17.3 E 17 21 1022.0 - 0.0 - - - - - - -
23/12:30am 17.2 E 16 19 1022.2 - 0.0 - - - - - - -
23/12:00am 17.2 ESE 14 17 1022.5 - 0.0 - - - - - - -
 
Date/Time
EST
Temp
°C
Wind Pressure Rain since
9am
mm
Weather Cloud Vis
km
Sea
Height
m
Swell
Dir  Spd
kts
Gust
kts
hPa Trend Height
m
Period
s
Dir
22/11:30pm 17.3 ESE 15 18 1022.6 - 0.0 - - - - - - -
22/11:00pm 17.3 ESE 14 17 1022.9 - 0.0 - - - - - - -
22/10:30pm 17.5 ESE 16 19 1022.9 - 0.0 - - - - - - -
22/10:00pm 17.8 ESE 14 18 1022.9 - 0.0 - - - - - - -
22/09:30pm 18.2 ESE 14 17 1022.8 - 0.0 - - - - - - -

Other Formats:

Comma delimited format used in spreadsheet applications
http://www.bom.gov.au/fwo/IDT60701/IDT60701.94804.axf

JavaScript Object Notation format (JSON) in row-major order
http://www.bom.gov.au/fwo/IDT60701/IDT60701.94804.json